createdAt,value
2018-06-17T00:01:24.945Z,18.80
2018-06-17T00:03:53.530Z,18.80
2018-06-17T00:06:22.014Z,18.70
2018-06-17T00:08:50.271Z,18.60
2018-06-17T00:11:18.582Z,18.60
2018-06-17T00:13:46.837Z,18.50
2018-06-17T00:16:15.452Z,18.50
2018-06-17T00:18:43.707Z,18.40
2018-06-17T00:21:11.997Z,18.30
2018-06-17T00:23:40.758Z,18.20
2018-06-17T00:26:09.144Z,18.10
2018-06-17T00:28:37.445Z,18.00
2018-06-17T00:31:05.835Z,18.00
2018-06-17T00:33:34.167Z,17.90
2018-06-17T00:36:02.436Z,17.90
2018-06-17T00:38:31.248Z,17.80
2018-06-17T00:41:00.403Z,17.90
2018-06-17T00:43:28.699Z,17.80
2018-06-17T00:45:56.945Z,17.80
2018-06-17T00:48:25.505Z,17.90
2018-06-17T00:50:54.226Z,17.90
2018-06-17T00:53:22.730Z,18.00
2018-06-17T00:55:51.365Z,17.90
2018-06-17T00:58:19.634Z,17.90
2018-06-17T01:00:47.903Z,17.90
2018-06-17T01:03:16.186Z,17.90
2018-06-17T01:05:44.699Z,17.90
2018-06-17T01:08:13.529Z,17.90
2018-06-17T01:10:41.898Z,17.90
2018-06-17T01:13:10.216Z,17.90
2018-06-17T01:15:38.465Z,17.90
2018-06-17T01:18:06.735Z,17.90
2018-06-17T01:20:35.034Z,17.90
2018-06-17T01:23:04.031Z,18.00
2018-06-17T01:25:32.346Z,17.90
2018-06-17T01:28:00.612Z,17.90
2018-06-17T01:30:29.045Z,17.90
2018-06-17T01:32:57.322Z,17.80
2018-06-17T01:35:25.602Z,17.80
2018-06-17T01:37:54.140Z,17.80
2018-06-17T01:40:22.477Z,17.80
2018-06-17T01:45:18.749Z,17.80
2018-06-17T01:47:47.129Z,17.80
2018-06-17T01:50:15.495Z,17.90
2018-06-17T01:52:43.766Z,17.90
2018-06-17T01:57:40.047Z,17.80
2018-06-17T02:00:08.319Z,17.80
2018-06-17T02:02:36.590Z,17.80
2018-06-17T02:05:10.350Z,17.80
2018-06-17T02:07:44.951Z,17.80
2018-06-17T02:10:18.719Z,17.80
2018-06-17T02:12:47.013Z,17.70
2018-06-17T02:15:15.306Z,17.70
2018-06-17T02:17:43.607Z,17.70
2018-06-17T02:20:11.886Z,17.70
2018-06-17T02:22:40.158Z,17.70
2018-06-17T02:25:08.455Z,17.70
2018-06-17T02:27:36.787Z,17.70
2018-06-17T02:30:05.142Z,17.70
2018-06-17T02:32:34.034Z,17.70
2018-06-17T02:35:02.364Z,17.70
2018-06-17T02:37:30.654Z,17.70
2018-06-17T02:39:58.942Z,17.70
2018-06-17T02:42:27.234Z,17.70
2018-06-17T02:45:00.866Z,17.70
2018-06-17T02:47:34.587Z,17.70
2018-06-17T02:50:08.302Z,17.70
2018-06-17T02:52:42.112Z,17.70
2018-06-17T02:55:10.396Z,17.80
2018-06-17T02:57:38.687Z,17.90
2018-06-17T03:00:07.423Z,17.90
2018-06-17T03:02:35.699Z,17.90
2018-06-17T03:05:04.028Z,17.90
2018-06-17T03:07:32.295Z,17.90
2018-06-17T03:10:00.715Z,17.90
2018-06-17T03:12:29.302Z,17.90
2018-06-17T03:14:57.973Z,17.80
2018-06-17T03:17:26.264Z,17.80
2018-06-17T03:19:54.550Z,17.80
2018-06-17T03:22:22.802Z,17.80
2018-06-17T03:24:56.514Z,17.70
2018-06-17T03:27:30.311Z,17.70
2018-06-17T03:30:04.198Z,17.70
2018-06-17T03:32:37.974Z,17.70
2018-06-17T03:35:11.754Z,17.60
2018-06-17T03:37:40.045Z,17.60
2018-06-17T03:40:08.334Z,17.60
2018-06-17T03:42:36.601Z,17.60
2018-06-17T03:45:04.914Z,17.70
2018-06-17T03:47:33.206Z,17.70
2018-06-17T03:50:01.851Z,17.70
2018-06-17T03:52:30.202Z,17.70
2018-06-17T03:54:58.686Z,17.60
2018-06-17T03:57:26.960Z,17.60
2018-06-17T03:59:55.255Z,17.60
2018-06-17T04:02:23.528Z,17.60
2018-06-17T04:04:57.126Z,17.50
2018-06-17T04:07:26.103Z,17.50
2018-06-17T04:09:54.426Z,17.40
2018-06-17T04:12:22.943Z,17.40
2018-06-17T04:14:51.602Z,17.30
2018-06-17T04:17:20.547Z,17.30
2018-06-17T04:19:49.518Z,17.20
2018-06-17T04:22:18.066Z,17.20
2018-06-17T04:24:46.429Z,17.10
2018-06-17T04:27:14.805Z,17.00
2018-06-17T04:29:43.079Z,17.00
2018-06-17T04:32:11.418Z,17.00
2018-06-17T04:34:39.689Z,17.00
2018-06-17T04:37:07.990Z,16.90
2018-06-17T04:39:36.403Z,16.90
2018-06-17T04:42:04.693Z,16.90
2018-06-17T04:44:32.998Z,17.00
2018-06-17T04:47:01.330Z,17.20
2018-06-17T04:49:30.174Z,17.40
2018-06-17T04:51:59.462Z,17.70
2018-06-17T04:54:27.771Z,18.00
2018-06-17T04:56:56.069Z,18.40
2018-06-17T04:59:24.338Z,18.80
2018-06-17T05:01:52.654Z,19.10
2018-06-17T05:04:21.019Z,19.30
2018-06-17T05:06:49.291Z,19.50
2018-06-17T05:09:17.566Z,19.80
2018-06-17T05:11:45.842Z,20.10
2018-06-17T05:14:14.314Z,20.30
2018-06-17T05:16:42.650Z,20.40
2018-06-17T05:19:11.118Z,20.40
2018-06-17T05:21:39.594Z,20.50
2018-06-17T05:24:07.873Z,20.70
2018-06-17T05:26:36.182Z,21.00
2018-06-17T05:29:05.045Z,21.30
2018-06-17T05:31:33.685Z,21.80
2018-06-17T05:34:01.984Z,21.90
2018-06-17T05:36:30.390Z,21.60
2018-06-17T05:38:59.309Z,21.70
2018-06-17T05:41:27.606Z,22.20
2018-06-17T05:43:55.897Z,22.60
2018-06-17T05:46:24.542Z,22.80
2018-06-17T05:48:52.986Z,22.60
2018-06-17T05:51:21.331Z,22.20
2018-06-17T05:53:49.598Z,22.00
2018-06-17T05:56:18.288Z,21.80
2018-06-17T05:58:46.718Z,21.60
2018-06-17T06:01:15.192Z,21.60
2018-06-17T06:03:43.577Z,21.70
2018-06-17T06:06:11.877Z,21.70
2018-06-17T06:08:40.161Z,21.80
2018-06-17T06:11:08.459Z,21.80
2018-06-17T06:13:36.738Z,21.90
2018-06-17T06:16:05.099Z,22.00
2018-06-17T06:18:33.390Z,22.20
2018-06-17T06:21:01.692Z,22.30
2018-06-17T06:23:30.059Z,22.30
2018-06-17T06:28:26.514Z,22.20
2018-06-17T06:30:55.186Z,22.10
2018-06-17T06:33:24.375Z,21.90
2018-06-17T06:35:52.638Z,22.00
2018-06-17T06:38:22.401Z,22.40
2018-06-17T06:40:51.427Z,22.80
2018-06-17T06:43:19.782Z,22.90
2018-06-17T06:48:16.365Z,23.70
2018-06-17T06:50:44.713Z,24.00
2018-06-17T06:58:09.269Z,24.80
2018-06-17T07:00:37.744Z,25.00
2018-06-17T07:03:17.531Z,25.00
2018-06-17T07:05:57.333Z,25.00
2018-06-17T07:08:37.085Z,25.20
2018-06-17T07:11:05.370Z,25.40
2018-06-17T07:13:33.673Z,25.60
2018-06-17T07:16:13.382Z,25.90
2018-06-17T07:18:42.264Z,26.40
2018-06-17T07:21:10.961Z,26.70
2018-06-17T07:23:39.234Z,27.10
2018-06-17T07:26:32.302Z,27.50
2018-06-17T07:29:11.984Z,28.00
2018-06-17T07:31:40.260Z,28.60
2018-06-17T07:34:09.237Z,28.50
2018-06-17T07:36:37.996Z,28.20
2018-06-17T07:40:26.391Z,27.90
2018-06-17T07:42:54.709Z,27.90
2018-06-17T07:47:51.686Z,28.70
2018-06-17T07:50:31.242Z,29.00
2018-06-17T07:53:13.306Z,29.00
2018-06-17T07:55:42.686Z,29.00
2018-06-17T07:58:11.010Z,29.20
2018-06-17T08:00:39.746Z,29.00
2018-06-17T08:03:08.039Z,29.30
2018-06-17T08:05:36.655Z,29.50
2018-06-17T08:08:05.300Z,30.00
2018-06-17T08:10:33.710Z,30.00
2018-06-17T08:13:02.367Z,30.00
2018-06-17T08:15:31.331Z,30.10
2018-06-17T08:17:59.662Z,30.20
2018-06-17T08:22:56.956Z,30.80
2018-06-17T08:25:25.510Z,31.00
2018-06-17T08:27:54.157Z,31.60
2018-06-17T08:30:22.802Z,31.70
2018-06-17T08:32:51.086Z,31.90
2018-06-17T08:35:19.398Z,31.50
2018-06-17T08:37:47.679Z,30.90
2018-06-17T08:40:17.318Z,31.00
2018-06-17T08:42:45.610Z,31.80
2018-06-17T08:45:14.417Z,32.60
2018-06-17T08:47:42.685Z,32.90
2018-06-17T08:50:11.246Z,32.50
2018-06-17T08:52:39.698Z,32.60
2018-06-17T08:55:08.226Z,33.10
2018-06-17T08:57:36.547Z,33.50
2018-06-17T09:00:05.111Z,33.90
2018-06-17T09:02:33.406Z,34.50
2018-06-17T09:05:02.081Z,35.20
2018-06-17T09:07:30.406Z,34.20
2018-06-17T09:09:58.880Z,32.80
2018-06-17T09:12:27.292Z,31.90
2018-06-17T09:14:56.099Z,33.20
2018-06-17T09:17:24.410Z,34.50
2018-06-17T09:19:52.732Z,36.00
2018-06-17T09:22:21.450Z,37.20
2018-06-17T09:24:49.742Z,38.00
2018-06-17T09:27:18.016Z,35.80
2018-06-17T09:29:46.799Z,34.40
2018-06-17T09:32:15.478Z,33.10
2018-06-17T09:34:43.727Z,32.30
2018-06-17T09:37:12.214Z,31.50
2018-06-17T09:39:40.497Z,30.50
2018-06-17T09:42:09.101Z,29.80
2018-06-17T09:47:06.240Z,29.40
2018-06-17T09:49:34.526Z,29.00
2018-06-17T09:52:02.844Z,28.80
2018-06-17T09:54:31.146Z,28.60
2018-06-17T09:56:59.431Z,28.50
2018-06-17T09:59:27.702Z,28.40
2018-06-17T10:01:56.008Z,28.90
2018-06-17T10:04:24.382Z,29.00
2018-06-17T10:06:52.690Z,28.70
2018-06-17T10:09:21.022Z,28.30
2018-06-17T10:11:49.294Z,27.80
2018-06-17T10:14:17.639Z,28.00
2018-06-17T10:16:45.949Z,29.00
2018-06-17T10:19:15.610Z,30.10
2018-06-17T10:21:44.531Z,30.80
2018-06-17T10:24:13.339Z,30.70
2018-06-17T10:26:42.017Z,30.30
2018-06-17T10:29:10.381Z,31.20
2018-06-17T10:31:38.874Z,32.60
2018-06-17T10:34:07.812Z,33.40
2018-06-17T10:36:36.145Z,34.40
2018-06-17T10:39:07.394Z,33.90
2018-06-17T10:41:35.882Z,33.30
2018-06-17T10:44:04.179Z,32.40
2018-06-17T10:46:32.496Z,31.60
2018-06-17T10:49:01.299Z,30.70
2018-06-17T10:51:29.826Z,29.60
2018-06-17T10:53:58.081Z,29.00
2018-06-17T10:56:26.490Z,28.60
2018-06-17T10:58:54.808Z,28.90
2018-06-17T11:01:23.099Z,29.10
2018-06-17T11:03:51.408Z,28.50
2018-06-17T11:06:20.279Z,28.20
2018-06-17T11:08:48.658Z,27.90
2018-06-17T11:11:17.169Z,27.70
2018-06-17T11:13:45.469Z,27.80
2018-06-17T11:16:13.738Z,28.10
2018-06-17T11:18:42.265Z,28.20
2018-06-17T11:23:38.894Z,27.70
2018-06-17T11:26:07.171Z,27.40
2018-06-17T11:28:35.722Z,27.40
2018-06-17T11:31:04.357Z,27.50
2018-06-17T11:33:33.030Z,27.60
2018-06-17T11:36:01.311Z,27.70
2018-06-17T11:38:30.818Z,27.60
2018-06-17T11:43:27.624Z,27.40
2018-06-17T11:45:55.888Z,27.20
2018-06-17T11:48:24.153Z,27.10
2018-06-17T11:50:52.419Z,27.00
2018-06-17T11:53:20.699Z,27.20
2018-06-17T11:55:49.059Z,27.50
2018-06-17T12:00:45.752Z,28.10
2018-06-17T12:03:14.147Z,28.10
2018-06-17T12:05:43.306Z,27.90
2018-06-17T12:08:12.274Z,27.70
2018-06-17T12:10:40.602Z,27.50
2018-06-17T12:13:09.140Z,27.50
2018-06-17T12:15:37.408Z,27.50
2018-06-17T12:18:05.836Z,27.30
2018-06-17T12:20:34.906Z,27.20
2018-06-17T12:23:04.194Z,27.10
2018-06-17T12:25:33.050Z,27.30
2018-06-17T12:28:01.469Z,27.40
2018-06-17T12:30:29.835Z,27.40
2018-06-17T12:32:58.146Z,27.40
2018-06-17T12:35:26.470Z,27.50
2018-06-17T12:37:54.732Z,27.60
2018-06-17T12:40:23.355Z,27.70
2018-06-17T12:42:53.398Z,27.60
2018-06-17T12:45:21.878Z,27.60
2018-06-17T12:47:50.302Z,27.50
2018-06-17T12:50:18.598Z,27.50
2018-06-17T12:52:46.882Z,27.50
2018-06-17T12:55:15.451Z,27.60
2018-06-17T12:57:44.128Z,27.40
2018-06-17T13:00:13.015Z,27.10
2018-06-17T13:02:41.283Z,26.80
2018-06-17T13:05:10.050Z,26.70
2018-06-17T13:07:38.335Z,26.60
2018-06-17T13:10:06.662Z,26.60
2018-06-17T13:12:34.984Z,26.60
2018-06-17T13:15:03.679Z,26.50
2018-06-17T13:17:32.570Z,26.60
2018-06-17T13:20:00.918Z,26.50
2018-06-17T13:22:29.189Z,26.60
2018-06-17T13:24:58.341Z,26.60
2018-06-17T13:27:26.934Z,26.70
2018-06-17T13:29:55.197Z,26.80
2018-06-17T13:32:23.744Z,27.00
2018-06-17T13:34:52.820Z,27.00
2018-06-17T13:37:21.179Z,26.90
2018-06-17T13:39:49.502Z,27.00
2018-06-17T13:42:17.782Z,26.80
2018-06-17T13:44:47.035Z,26.60
2018-06-17T13:47:15.314Z,26.50
2018-06-17T13:49:44.037Z,26.40
2018-06-17T13:52:14.422Z,26.30
2018-06-17T13:54:44.823Z,26.30
2018-06-17T13:59:41.173Z,26.60
2018-06-17T14:02:09.702Z,26.70
2018-06-17T14:04:38.060Z,26.70
2018-06-17T14:07:06.782Z,26.60
2018-06-17T14:09:35.504Z,26.50
2018-06-17T14:12:08.226Z,26.30
2018-06-17T14:14:36.493Z,26.10
2018-06-17T14:17:05.400Z,25.90
2018-06-17T14:19:33.678Z,25.80
2018-06-17T14:22:02.199Z,25.70
2018-06-17T14:24:30.461Z,25.70
2018-06-17T14:26:58.850Z,25.70
2018-06-17T14:29:27.106Z,25.60
2018-06-17T14:31:55.584Z,25.30
2018-06-17T14:34:27.447Z,24.90
2018-06-17T14:36:56.381Z,24.70
2018-06-17T14:39:25.223Z,24.80
2018-06-17T14:41:59.348Z,24.80
2018-06-17T14:44:33.162Z,24.80
2018-06-17T14:47:07.009Z,24.80
2018-06-17T14:49:41.124Z,24.70
2018-06-17T14:52:15.364Z,24.70
2018-06-17T14:54:44.074Z,24.70
2018-06-17T14:57:12.366Z,24.60
2018-06-17T14:59:40.842Z,24.60
2018-06-17T15:02:09.154Z,24.50
2018-06-17T15:04:37.447Z,24.50
2018-06-17T15:09:34.142Z,24.70
2018-06-17T15:12:02.474Z,24.90
2018-06-17T15:14:32.569Z,25.00
2018-06-17T15:17:01.256Z,25.10
2018-06-17T15:19:29.595Z,25.10
2018-06-17T15:21:58.311Z,25.10
2018-06-17T15:24:26.604Z,24.90
2018-06-17T15:26:56.291Z,24.80
2018-06-17T15:29:24.635Z,24.60
2018-06-17T15:31:58.260Z,24.50
2018-06-17T15:34:31.982Z,24.50
2018-06-17T15:37:05.599Z,24.50
2018-06-17T15:39:39.308Z,24.40
2018-06-17T15:42:07.660Z,24.30
2018-06-17T15:44:35.946Z,24.30
2018-06-17T15:47:04.278Z,24.30
2018-06-17T15:49:32.558Z,24.20
2018-06-17T15:52:00.882Z,24.20
2018-06-17T15:54:29.198Z,24.10
2018-06-17T15:56:57.474Z,24.10
2018-06-17T15:59:25.771Z,24.10
2018-06-17T16:04:24.434Z,24.00
2018-06-17T16:06:52.784Z,23.80
2018-06-17T16:09:21.074Z,23.80
2018-06-17T16:11:55.044Z,23.70
2018-06-17T16:17:02.359Z,23.70
2018-06-17T16:19:36.103Z,23.70
2018-06-17T16:22:04.390Z,23.70
2018-06-17T16:24:33.786Z,23.70
2018-06-17T16:27:02.095Z,23.50
2018-06-17T16:29:30.767Z,23.40
2018-06-17T16:31:59.038Z,23.30
2018-06-17T16:34:27.342Z,23.20
2018-06-17T16:36:55.627Z,23.10
2018-06-17T16:39:23.960Z,22.90
2018-06-17T16:41:52.660Z,22.80
2018-06-17T16:44:22.293Z,22.70
2018-06-17T16:46:50.858Z,22.60
2018-06-17T16:49:19.135Z,22.50
2018-06-17T16:51:52.962Z,22.40
2018-06-17T16:54:26.701Z,22.30
2018-06-17T16:57:00.498Z,22.20
2018-06-17T16:59:34.130Z,22.20
2018-06-17T17:02:03.031Z,22.20
2018-06-17T17:04:31.540Z,22.20
2018-06-17T17:06:59.820Z,22.20
2018-06-17T17:09:28.403Z,22.30
2018-06-17T17:11:56.723Z,22.40
2018-06-17T17:14:24.992Z,22.40
2018-06-17T17:16:53.252Z,22.60
2018-06-17T17:19:21.534Z,22.60
2018-06-17T17:24:17.864Z,22.70
2018-06-17T17:26:46.144Z,22.70
2018-06-17T17:29:14.435Z,22.60
2018-06-17T17:31:48.206Z,22.50
2018-06-17T17:34:22.076Z,22.40
2018-06-17T17:36:55.816Z,22.40
2018-06-17T17:39:29.562Z,22.30
2018-06-17T17:41:57.818Z,22.30
2018-06-17T17:44:26.276Z,22.20
2018-06-17T17:47:00.078Z,22.20
2018-06-17T17:49:28.507Z,22.10
2018-06-17T17:51:57.330Z,22.10
2018-06-17T17:54:25.606Z,22.20
2018-06-17T17:56:53.883Z,22.20
2018-06-17T17:59:22.141Z,22.20
2018-06-17T18:01:50.411Z,22.20
2018-06-17T18:04:18.712Z,22.10
2018-06-17T18:06:47.002Z,22.00
2018-06-17T18:09:15.811Z,22.00
2018-06-17T18:11:44.154Z,22.00
2018-06-17T18:14:12.446Z,21.90
2018-06-17T18:16:40.722Z,21.90
2018-06-17T18:19:08.998Z,21.90
2018-06-17T18:21:38.432Z,21.80
2018-06-17T18:24:06.726Z,21.80
2018-06-17T18:26:40.581Z,21.70
2018-06-17T18:29:14.171Z,21.70
2018-06-17T18:31:47.781Z,21.60
2018-06-17T18:36:50.358Z,21.50
2018-06-17T18:39:19.018Z,21.30
2018-06-17T18:41:47.314Z,21.20
2018-06-17T18:44:15.594Z,21.10
2018-06-17T18:46:43.871Z,20.90
2018-06-17T18:49:13.771Z,20.80
2018-06-17T18:51:45.447Z,20.80
2018-06-17T18:54:16.162Z,20.70
2018-06-17T18:56:44.527Z,20.60
2018-06-17T18:59:12.795Z,20.60
2018-06-17T19:01:41.077Z,20.60
2018-06-17T19:04:09.384Z,20.50
2018-06-17T19:06:38.652Z,20.40
2018-06-17T19:09:13.614Z,20.40
2018-06-17T19:11:47.651Z,20.30
2018-06-17T19:14:21.253Z,20.30
2018-06-17T19:16:54.913Z,20.20
2018-06-17T19:19:23.185Z,20.20
2018-06-17T19:21:51.473Z,20.00
2018-06-17T19:24:19.801Z,19.90
2018-06-17T19:26:48.538Z,19.90
2018-06-17T19:29:17.310Z,19.80
2018-06-17T19:31:45.615Z,19.70
2018-06-17T19:34:13.873Z,19.60
2018-06-17T19:36:42.207Z,19.60
2018-06-17T19:39:11.829Z,19.50
2018-06-17T19:41:40.107Z,19.40
2018-06-17T19:44:09.125Z,19.30
2018-06-17T19:46:37.391Z,19.20
2018-06-17T19:49:05.723Z,19.20
2018-06-17T19:51:40.034Z,19.10
2018-06-17T19:54:13.783Z,19.00
2018-06-17T19:56:47.795Z,19.00
2018-06-17T19:59:21.669Z,18.90
2018-06-17T20:01:49.947Z,18.80
2018-06-17T20:04:18.205Z,18.60
2018-06-17T20:06:46.493Z,18.30
2018-06-17T20:09:14.771Z,17.90
2018-06-17T20:11:43.098Z,17.60
2018-06-17T20:14:11.358Z,17.50
2018-06-17T20:16:39.668Z,17.50
2018-06-17T20:19:07.934Z,17.50
2018-06-17T20:21:36.182Z,17.50
2018-06-17T20:24:04.711Z,17.40
2018-06-17T20:26:34.439Z,17.50
2018-06-17T20:29:03.573Z,17.50
2018-06-17T20:31:32.325Z,17.40
2018-06-17T20:34:05.987Z,17.40
2018-06-17T20:41:52.987Z,17.30
2018-06-17T20:44:21.471Z,17.30
2018-06-17T20:46:49.925Z,17.20
2018-06-17T20:49:18.174Z,17.20
2018-06-17T20:51:47.502Z,17.20
2018-06-17T20:54:15.854Z,17.20
2018-06-17T20:56:44.186Z,17.20
2018-06-17T20:59:12.947Z,17.10
2018-06-17T21:01:41.306Z,17.10
2018-06-17T21:04:09.571Z,17.20
2018-06-17T21:06:37.894Z,17.20
2018-06-17T21:09:08.974Z,17.10
2018-06-17T21:11:37.672Z,17.10
2018-06-17T21:14:08.704Z,17.10
2018-06-17T21:16:38.278Z,17.10
2018-06-17T21:19:15.241Z,17.10
2018-06-17T21:21:50.427Z,17.10
2018-06-17T21:24:24.224Z,17.00
2018-06-17T21:26:58.970Z,17.00
2018-06-17T21:29:27.257Z,17.00
2018-06-17T21:31:56.386Z,17.00
2018-06-17T21:34:29.503Z,17.00
2018-06-17T21:36:57.883Z,17.00
2018-06-17T21:39:28.775Z,17.10
2018-06-17T21:44:25.893Z,17.10
2018-06-17T21:46:54.676Z,17.10
2018-06-17T21:49:25.098Z,17.10
2018-06-17T21:51:54.848Z,17.10
2018-06-17T21:54:24.930Z,17.10
2018-06-17T21:56:57.013Z,17.10
2018-06-17T21:59:25.275Z,17.10
2018-06-17T22:01:53.662Z,17.10
2018-06-17T22:04:28.106Z,17.10
2018-06-17T22:06:56.450Z,17.10
2018-06-17T22:09:30.766Z,17.10
2018-06-17T22:12:04.607Z,17.00
2018-06-17T22:14:38.298Z,17.00
2018-06-17T22:17:12.023Z,16.90
2018-06-17T22:19:43.541Z,16.90
2018-06-17T22:22:11.862Z,16.80
2018-06-17T22:24:40.138Z,16.60
2018-06-17T22:27:08.676Z,16.60
2018-06-17T22:29:39.409Z,16.50
2018-06-17T22:32:08.077Z,16.40
2018-06-17T22:34:36.688Z,16.30
2018-06-17T22:37:05.203Z,16.30
2018-06-17T22:39:34.593Z,16.20
2018-06-17T22:42:02.845Z,16.10
2018-06-17T22:44:31.137Z,16.10
2018-06-17T22:46:59.482Z,16.10
2018-06-17T22:49:27.789Z,16.00
2018-06-17T22:51:56.042Z,16.00
2018-06-17T22:54:36.234Z,15.90
2018-06-17T22:57:13.657Z,15.90
2018-06-17T22:59:47.322Z,15.90
2018-06-17T23:02:21.633Z,15.80
2018-06-17T23:04:56.982Z,15.80
2018-06-17T23:07:33.741Z,15.70
2018-06-17T23:10:03.525Z,15.70
2018-06-17T23:12:33.146Z,15.70
2018-06-17T23:15:01.738Z,15.60
2018-06-17T23:17:36.980Z,15.50
2018-06-17T23:20:05.779Z,15.50
2018-06-17T23:22:34.563Z,15.50
2018-06-17T23:25:03.948Z,15.50
2018-06-17T23:27:32.381Z,15.50
2018-06-17T23:30:00.787Z,15.50
2018-06-17T23:32:29.065Z,15.60
2018-06-17T23:34:57.619Z,15.60
2018-06-17T23:37:26.443Z,15.60
2018-06-17T23:39:55.261Z,15.60
2018-06-17T23:42:24.057Z,15.60
2018-06-17T23:44:53.346Z,15.60
2018-06-17T23:47:28.187Z,15.60
2018-06-17T23:50:02.092Z,15.60
2018-06-17T23:52:36.158Z,15.60
2018-06-17T23:56:09.753Z,15.60
2018-06-17T23:58:39.174Z,15.50
